Herseytown Township, Maine
Current Conditions -  °F | °C
As of 6:53 AM on Monday 20 Oct 2014 (Local Time) from KMLT Reporting Station
Broken Clouds Broken Clouds  
Wind Chill: 27°   Ceiling: 3100
Heat Index: 37°   Visibility: 10mi
Dew Point: 26°   Wind: 18mph
Humidity: 65%   Direction: 290°WNW
Pressure: 29.84"   Gusts: 30mph
Location:  45.87°N, 68.5179°W
Report Text: KMLT 201053Z AUTO 29016G26KT 10SM BKN031 03/M03 A2984 RMK AO2 PK WND 30026/1040 SLP112 T00281033
Loading
Personal Weather Stations






























Interactive Weather Map
Tropical Storm Tracking
New forecast layout! Learn more

10-Day Weather Forecast

Advertisements
Track Severe Weather on mobile